Terminal Aerodrome Forecast
Issued by NWS Cleveland, OH

Home | Current Version | Previous Version | Graphics & Text | Print | Product List | Glossary Off
Versions: 1 2 3 4 5 6 7 8 9 10 11 12 13 14 15 16 17 18 19 20 21 22 23 24 25 26 27 28 29 30 31

000
FTUS41 KCLE 132000 AAC
TAFCLE
TAF AMD
KCLE 132055Z 1321/1424 30010KT P6SM SCT035 BKN250
     FM140200 VRB03KT P6SM SCT100 BKN250
     FM141400 22006KT P6SM SCT040 BKN150=

USA.gov is the U.S. government's official web portal to all federal, state and local government web resources and services.